Terminal Aerodrome Forecast
Issued by NWS Topeka, KS

Home | Current Version | Previous Version | Graphics & Text | Print | Product List | Glossary On
Versions: 1 2 3 4 5 6 7 8 9 10 11 12 13 14 15 16
859
FTUS43 KTOP 262320
TAFTOP
TAF
KTOP 262320Z 2700/2724 12006KT P6SM SCT060 BKN150
     FM270800 11002KT P6SM VCTS SCT020 BKN035CB
     FM271400 17006KT P6SM SCT040=

USA.gov is the U.S. government's official web portal to all federal, state and local government web resources and services.